首页
METAR-TAF:

METAR-TAF

机场 :

哈利法克斯罗伯特·洛恩·斯坦菲尔德国际机场

哈利法克斯, 新斯科舍, 加拿大

纬度: 44-53N, 经度: 063-30W, 海拔: 145米

当前天气观测

该预报发布于33分钟前的19:46 UTC
风速30节,风向西转西北,有时为42节阵风
温度 -6°C
湿度 58%
气压 1008 hPa
能見度: 24.1公里
多云层高于3700英尺
小阵雪

METAR: CYHZ 141946Z 30030G42KT 15SM -SHSN BKN037 M06/M13 A2976 RMK SC6 CU ASOCTD SLP087

时间: 16:19 (20:19 UTC)

预报

该预报发布于2小时和41分钟前的17:38 UTC
预报有效从14日的 18点(UTC)到 15日的 18点(UTC)
风速25节,风向西转西北,有时为40节阵风
能見度: 10公里
散云层高于4000英尺
成为
从 15日的 02点(UTC)到 15日的 04点(UTC)
风速20节,风向西转西北,有时为35节阵风
少量云层高于4000英尺
从 15日的 0800点(UTC)
风速15节,风向西转西北,有时为25节阵风
能見度: 10公里
天空无云

TAF: CYHZ 141738Z 1418/1518 30025G40KT P6SM SCT040 BECMG 1502/1504 30020G35KT FEW040 FM150800 30015G25KT P6SM SKC RMK NXT FCST BY 142100Z

超过4000个机场的气象观测和天气预报(METAR&TAF报告)。

可查询的气象台以黄色和红色小点在地图上表示。

将鼠标移到小点上方,可查看气象台名称。

然后点击查看天气观测和预报。

如需切换地图:点击带黑十字的绿色按钮放大地图;点击带横线的绿色按钮缩小地图;或者点击绿色箭头查看邻近地区的地图。


METAR-TAF: